sensor_id;sensor_type;location;lat;lon;timestamp;temperature;humidity
26035;DHT22;13809;48.632;11.576;2023-05-10T00:00:30;19.70;31.00
26035;DHT22;13809;48.632;11.576;2023-05-10T00:05:35;19.50;31.40
26035;DHT22;13809;48.632;11.576;2023-05-10T00:10:38;19.40;32.40
26035;DHT22;13809;48.632;11.576;2023-05-10T00:15:42;19.30;31.90
26035;DHT22;13809;48.632;11.576;2023-05-10T00:20:47;19.20;31.80
26035;DHT22;13809;48.632;11.576;2023-05-10T00:25:50;19.10;33.00
26035;DHT22;13809;48.632;11.576;2023-05-10T00:30:53;19.00;32.40
26035;DHT22;13809;48.632;11.576;2023-05-10T00:35:58;18.90;32.70
26035;DHT22;13809;48.632;11.576;2023-05-10T00:41:02;18.70;33.80
26035;DHT22;13809;48.632;11.576;2023-05-10T00:46:05;18.60;33.40
26035;DHT22;13809;48.632;11.576;2023-05-10T00:51:10;18.50;33.90
26035;DHT22;13809;48.632;11.576;2023-05-10T00:56:13;18.40;35.10
26035;DHT22;13809;48.632;11.576;2023-05-10T01:01:17;18.30;34.20
26035;DHT22;13809;48.632;11.576;2023-05-10T01:06:23;18.30;34.50
26035;DHT22;13809;48.632;11.576;2023-05-10T01:11:26;18.30;35.00
26035;DHT22;13809;48.632;11.576;2023-05-10T01:16:31;18.20;34.90
26035;DHT22;13809;48.632;11.576;2023-05-10T01:21:41;18.20;34.90
26035;DHT22;13809;48.632;11.576;2023-05-10T01:27:14;18.10;36.90
26035;DHT22;13809;48.632;11.576;2023-05-10T01:32:29;18.10;36.50
26035;DHT22;13809;48.632;11.576;2023-05-10T01:37:40;18.10;37.60
26035;DHT22;13809;48.632;11.576;2023-05-10T01:42:47;18.10;37.60
26035;DHT22;13809;48.632;11.576;2023-05-10T01:48:02;18.10;37.20
26035;DHT22;13809;48.632;11.576;2023-05-10T01:53:09;18.10;38.10
26035;DHT22;13809;48.632;11.576;2023-05-10T01:58:15;18.10;36.80
26035;DHT22;13809;48.632;11.576;2023-05-10T02:03:23;18.00;36.90
26035;DHT22;13809;48.632;11.576;2023-05-10T02:08:28;18.00;38.00
26035;DHT22;13809;48.632;11.576;2023-05-10T02:13:34;18.00;36.60
26035;DHT22;13809;48.632;11.576;2023-05-10T02:18:40;18.00;38.00
26035;DHT22;13809;48.632;11.576;2023-05-10T02:23:45;18.00;38.00
26035;DHT22;13809;48.632;11.576;2023-05-10T02:28:49;18.00;37.70
26035;DHT22;13809;48.632;11.576;2023-05-10T02:33:55;18.00;37.10
26035;DHT22;13809;48.632;11.576;2023-05-10T02:39:01;18.00;38.30
26035;DHT22;13809;48.632;11.576;2023-05-10T02:44:06;18.00;38.90
26035;DHT22;13809;48.632;11.576;2023-05-10T02:49:12;18.00;38.30
26035;DHT22;13809;48.632;11.576;2023-05-10T02:54:19;18.00;38.30
26035;DHT22;13809;48.632;11.576;2023-05-10T02:59:23;17.90;39.10
26035;DHT22;13809;48.632;11.576;2023-05-10T03:04:27;18.00;37.80
26035;DHT22;13809;48.632;11.576;2023-05-10T03:09:31;17.90;38.60
26035;DHT22;13809;48.632;11.576;2023-05-10T03:14:49;17.90;38.20
26035;DHT22;13809;48.632;11.576;2023-05-10T03:19:56;17.90;39.70
26035;DHT22;13809;48.632;11.576;2023-05-10T03:25:05;17.90;38.90
26035;DHT22;13809;48.632;11.576;2023-05-10T03:30:11;17.80;39.40
26035;DHT22;13809;48.632;11.576;2023-05-10T03:35:16;17.80;38.90
26035;DHT22;13809;48.632;11.576;2023-05-10T03:40:19;17.80;38.80
26035;DHT22;13809;48.632;11.576;2023-05-10T03:45:22;17.80;38.20
26035;DHT22;13809;48.632;11.576;2023-05-10T03:50:27;17.70;38.40
26035;DHT22;13809;48.632;11.576;2023-05-10T03:55:30;17.60;39.00
26035;DHT22;13809;48.632;11.576;2023-05-10T04:00:36;17.70;38.70
26035;DHT22;13809;48.632;11.576;2023-05-10T04:05:40;17.60;38.80
26035;DHT22;13809;48.632;11.576;2023-05-10T04:10:43;17.60;39.70
26035;DHT22;13809;48.632;11.576;2023-05-10T04:15:47;17.60;39.10
26035;DHT22;13809;48.632;11.576;2023-05-10T04:20:51;17.50;39.10
26035;DHT22;13809;48.632;11.576;2023-05-10T04:25:59;17.50;40.10
26035;DHT22;13809;48.632;11.576;2023-05-10T04:31:04;17.40;40.70
26035;DHT22;13809;48.632;11.576;2023-05-10T04:36:09;17.40;39.60
26035;DHT22;13809;48.632;11.576;2023-05-10T04:41:12;17.40;40.40
26035;DHT22;13809;48.632;11.576;2023-05-10T04:46:15;17.40;39.70
26035;DHT22;13809;48.632;11.576;2023-05-10T04:51:20;17.40;39.80
26035;DHT22;13809;48.632;11.576;2023-05-10T04:56:23;17.40;40.40
26035;DHT22;13809;48.632;11.576;2023-05-10T05:01:26;17.50;39.90
26035;DHT22;13809;48.632;11.576;2023-05-10T05:06:30;17.50;39.90
26035;DHT22;13809;48.632;11.576;2023-05-10T05:11:34;17.50;40.50
26035;DHT22;13809;48.632;11.576;2023-05-10T05:16:37;17.50;39.80
26035;DHT22;13809;48.632;11.576;2023-05-10T05:21:42;17.50;39.70
26035;DHT22;13809;48.632;11.576;2023-05-10T05:26:45;17.50;40.40
26035;DHT22;13809;48.632;11.576;2023-05-10T05:31:48;17.40;39.70
26035;DHT22;13809;48.632;11.576;2023-05-10T05:36:53;17.30;40.00
26035;DHT22;13809;48.632;11.576;2023-05-10T05:41:57;17.30;40.70
26035;DHT22;13809;48.632;11.576;2023-05-10T05:47:00;17.20;40.00
26035;DHT22;13809;48.632;11.576;2023-05-10T05:52:04;17.10;40.10
26035;DHT22;13809;48.632;11.576;2023-05-10T05:57:08;17.00;40.80
26035;DHT22;13809;48.632;11.576;2023-05-10T06:02:11;17.00;40.10
26035;DHT22;13809;48.632;11.576;2023-05-10T06:07:15;17.00;40.10
26035;DHT22;13809;48.632;11.576;2023-05-10T06:12:18;17.00;40.60
26035;DHT22;13809;48.632;11.576;2023-05-10T06:17:22;17.00;40.10
26035;DHT22;13809;48.632;11.576;2023-05-10T06:22:27;17.00;40.10
26035;DHT22;13809;48.632;11.576;2023-05-10T06:27:30;17.00;40.80
26035;DHT22;13809;48.632;11.576;2023-05-10T06:32:33;16.90;40.20
26035;DHT22;13809;48.632;11.576;2023-05-10T06:37:38;16.90;40.30
26035;DHT22;13809;48.632;11.576;2023-05-10T06:42:41;16.90;41.10
26035;DHT22;13809;48.632;11.576;2023-05-10T06:47:46;17.00;40.80
26035;DHT22;13809;48.632;11.576;2023-05-10T06:52:51;17.00;40.60
26035;DHT22;13809;48.632;11.576;2023-05-10T06:57:54;17.00;40.80
26035;DHT22;13809;48.632;11.576;2023-05-10T07:02:57;17.10;40.70
26035;DHT22;13809;48.632;11.576;2023-05-10T07:08:02;17.10;40.70
26035;DHT22;13809;48.632;11.576;2023-05-10T07:13:05;17.10;40.90
26035;DHT22;13809;48.632;11.576;2023-05-10T07:18:09;17.10;40.90
26035;DHT22;13809;48.632;11.576;2023-05-10T07:23:13;17.10;41.10
26035;DHT22;13809;48.632;11.576;2023-05-10T07:28:16;17.20;41.60
26035;DHT22;13809;48.632;11.576;2023-05-10T07:33:20;17.40;41.40
26035;DHT22;13809;48.632;11.576;2023-05-10T07:38:24;17.50;41.10
26035;DHT22;13809;48.632;11.576;2023-05-10T07:43:27;17.60;41.50
26035;DHT22;13809;48.632;11.576;2023-05-10T07:48:30;17.60;40.80
26035;DHT22;13809;48.632;11.576;2023-05-10T07:53:35;17.60;40.70
26035;DHT22;13809;48.632;11.576;2023-05-10T07:58:39;17.70;41.50
26035;DHT22;13809;48.632;11.576;2023-05-10T08:04:41;17.70;40.70
26035;DHT22;13809;48.632;11.576;2023-05-10T08:09:44;17.80;41.50
26035;DHT22;13809;48.632;11.576;2023-05-10T08:14:47;17.80;41.50
26035;DHT22;13809;48.632;11.576;2023-05-10T08:19:52;17.90;41.10
26035;DHT22;13809;48.632;11.576;2023-05-10T08:24:55;18.10;41.10
26035;DHT22;13809;48.632;11.576;2023-05-10T08:29:58;18.20;40.90
26035;DHT22;13809;48.632;11.576;2023-05-10T08:35:04;18.20;40.60
26035;DHT22;13809;48.632;11.576;2023-05-10T08:40:09;18.20;40.60
26035;DHT22;13809;48.632;11.576;2023-05-10T08:45:15;18.20;40.80
26035;DHT22;13809;48.632;11.576;2023-05-10T08:50:22;18.20;41.10
26035;DHT22;13809;48.632;11.576;2023-05-10T08:55:25;18.20;41.10
26035;DHT22;13809;48.632;11.576;2023-05-10T09:00:29;18.20;41.10
26035;DHT22;13809;48.632;11.576;2023-05-10T09:05:33;18.20;40.70
26035;DHT22;13809;48.632;11.576;2023-05-10T09:10:38;18.40;40.90
26035;DHT22;13809;48.632;11.576;2023-05-10T09:15:43;18.30;40.40
26035;DHT22;13809;48.632;11.576;2023-05-10T09:20:48;18.30;40.30
26035;DHT22;13809;48.632;11.576;2023-05-10T09:26:02;18.20;40.30
26035;DHT22;13809;48.632;11.576;2023-05-10T09:31:06;18.20;40.50
26035;DHT22;13809;48.632;11.576;2023-05-10T09:36:11;18.20;40.60
26035;DHT22;13809;48.632;11.576;2023-05-10T09:41:19;18.20;41.50
26035;DHT22;13809;48.632;11.576;2023-05-10T09:46:22;18.40;42.00
26035;DHT22;13809;48.632;11.576;2023-05-10T09:51:27;18.60;40.90
26035;DHT22;13809;48.632;11.576;2023-05-10T09:56:34;18.70;40.50
26035;DHT22;13809;48.632;11.576;2023-05-10T10:01:38;18.80;40.40
26035;DHT22;13809;48.632;11.576;2023-05-10T10:06:43;18.90;39.90
26035;DHT22;13809;48.632;11.576;2023-05-10T10:11:47;18.90;39.60
26035;DHT22;13809;48.632;11.576;2023-05-10T10:16:50;18.90;39.30
26035;DHT22;13809;48.632;11.576;2023-05-10T10:22:09;18.90;39.40
26035;DHT22;13809;48.632;11.576;2023-05-10T10:27:21;18.90;39.20
26035;DHT22;13809;48.632;11.576;2023-05-10T10:32:30;19.00;39.70
26035;DHT22;13809;48.632;11.576;2023-05-10T10:37:49;19.10;40.80
26035;DHT22;13809;48.632;11.576;2023-05-10T10:42:53;19.40;40.30
26035;DHT22;13809;48.632;11.576;2023-05-10T10:48:21;19.60;39.50
26035;DHT22;13809;48.632;11.576;2023-05-10T10:53:27;19.80;38.60
26035;DHT22;13809;48.632;11.576;2023-05-10T10:58:31;19.90;38.50
26035;DHT22;13809;48.632;11.576;2023-05-10T11:03:34;19.90;38.20
26035;DHT22;13809;48.632;11.576;2023-05-10T11:08:42;20.00;38.70
26035;DHT22;13809;48.632;11.576;2023-05-10T11:13:47;20.00;38.50
26035;DHT22;13809;48.632;11.576;2023-05-10T11:18:54;20.00;38.40
26035;DHT22;13809;48.632;11.576;2023-05-10T11:24:13;20.00;38.40
26035;DHT22;13809;48.632;11.576;2023-05-10T11:29:17;20.00;37.10
26035;DHT22;13809;48.632;11.576;2023-05-10T11:34:24;20.10;37.40
26035;DHT22;13809;48.632;11.576;2023-05-10T11:39:30;20.10;36.60
26035;DHT22;13809;48.632;11.576;2023-05-10T11:44:33;20.10;36.60
26035;DHT22;13809;48.632;11.576;2023-05-10T11:49:36;20.00;37.30
26035;DHT22;13809;48.632;11.576;2023-05-10T11:54:51;20.10;37.10
26035;DHT22;13809;48.632;11.576;2023-05-10T11:59:54;20.10;37.30
26035;DHT22;13809;48.632;11.576;2023-05-10T12:04:59;20.20;36.70
26035;DHT22;13809;48.632;11.576;2023-05-10T12:10:05;20.10;36.60
26035;DHT22;13809;48.632;11.576;2023-05-10T12:15:16;19.90;36.40
26035;DHT22;13809;48.632;11.576;2023-05-10T12:20:21;19.80;36.30
26035;DHT22;13809;48.632;11.576;2023-05-10T12:25:30;19.60;36.20
26035;DHT22;13809;48.632;11.576;2023-05-10T12:30:35;19.40;36.80
26035;DHT22;13809;48.632;11.576;2023-05-10T12:35:49;19.20;36.80
26035;DHT22;13809;48.632;11.576;2023-05-10T12:40:54;19.10;37.50
26035;DHT22;13809;48.632;11.576;2023-05-10T12:45:57;19.10;37.30
26035;DHT22;13809;48.632;11.576;2023-05-10T12:51:01;19.10;37.40
26035;DHT22;13809;48.632;11.576;2023-05-10T12:56:06;19.10;37.00
26035;DHT22;13809;48.632;11.576;2023-05-10T13:01:09;19.10;37.20
26035;DHT22;13809;48.632;11.576;2023-05-10T13:06:13;19.20;37.80
26035;DHT22;13809;48.632;11.576;2023-05-10T13:11:18;19.20;38.10
26035;DHT22;13809;48.632;11.576;2023-05-10T13:16:23;19.40;37.20
26035;DHT22;13809;48.632;11.576;2023-05-10T13:21:26;19.40;37.30
26035;DHT22;13809;48.632;11.576;2023-05-10T13:26:31;19.50;37.30
26035;DHT22;13809;48.632;11.576;2023-05-10T13:31:34;19.60;37.80
26035;DHT22;13809;48.632;11.576;2023-05-10T13:36:37;19.70;37.50
26035;DHT22;13809;48.632;11.576;2023-05-10T13:41:42;19.70;37.30
26035;DHT22;13809;48.632;11.576;2023-05-10T13:46:45;19.70;36.20
26035;DHT22;13809;48.632;11.576;2023-05-10T13:51:49;19.80;36.80
26035;DHT22;13809;48.632;11.576;2023-05-10T13:56:54;19.80;36.30
26035;DHT22;13809;48.632;11.576;2023-05-10T14:01:57;19.80;36.30
26035;DHT22;13809;48.632;11.576;2023-05-10T14:07:00;19.80;36.30
26035;DHT22;13809;48.632;11.576;2023-05-10T14:12:05;19.90;36.40
26035;DHT22;13809;48.632;11.576;2023-05-10T14:17:08;19.90;36.40
26035;DHT22;13809;48.632;11.576;2023-05-10T14:22:13;19.90;36.60
26035;DHT22;13809;48.632;11.576;2023-05-10T14:27:18;19.90;37.20
26035;DHT22;13809;48.632;11.576;2023-05-10T14:32:21;19.90;37.30
26035;DHT22;13809;48.632;11.576;2023-05-10T14:37:24;19.90;37.20
26035;DHT22;13809;48.632;11.576;2023-05-10T14:42:29;19.90;36.80
26035;DHT22;13809;48.632;11.576;2023-05-10T14:47:33;19.90;36.40
26035;DHT22;13809;48.632;11.576;2023-05-10T14:52:36;19.80;36.30
26035;DHT22;13809;48.632;11.576;2023-05-10T14:57:40;19.40;36.20
26035;DHT22;13809;48.632;11.576;2023-05-10T15:02:44;19.00;36.80
26035;DHT22;13809;48.632;11.576;2023-05-10T15:07:47;18.60;37.10
26035;DHT22;13809;48.632;11.576;2023-05-10T15:12:52;18.30;37.30
26035;DHT22;13809;48.632;11.576;2023-05-10T15:17:55;18.10;38.10
26035;DHT22;13809;48.632;11.576;2023-05-10T15:22:58;18.00;38.10
26035;DHT22;13809;48.632;11.576;2023-05-10T15:28:03;17.90;38.20
26035;DHT22;13809;48.632;11.576;2023-05-10T15:33:07;17.90;38.90
26035;DHT22;13809;48.632;11.576;2023-05-10T15:38:10;17.90;38.90
26035;DHT22;13809;48.632;11.576;2023-05-10T15:43:15;18.00;38.90
26035;DHT22;13809;48.632;11.576;2023-05-10T15:48:18;18.00;39.30
26035;DHT22;13809;48.632;11.576;2023-05-10T15:53:22;17.90;38.90
26035;DHT22;13809;48.632;11.576;2023-05-10T15:58:26;17.80;39.10
26035;DHT22;13809;48.632;11.576;2023-05-10T16:03:29;17.80;40.10
26035;DHT22;13809;48.632;11.576;2023-05-10T16:08:33;17.70;39.50
26035;DHT22;13809;48.632;11.576;2023-05-10T16:13:37;17.60;39.60
26035;DHT22;13809;48.632;11.576;2023-05-10T16:18:40;17.50;40.40
26035;DHT22;13809;48.632;11.576;2023-05-10T16:23:44;17.50;40.10
26035;DHT22;13809;48.632;11.576;2023-05-10T16:28:49;17.60;40.50
26035;DHT22;13809;48.632;11.576;2023-05-10T16:33:52;17.60;40.90
26035;DHT22;13809;48.632;11.576;2023-05-10T16:38:55;17.50;40.00
26035;DHT22;13809;48.632;11.576;2023-05-10T16:44:00;17.50;40.20
26035;DHT22;13809;48.632;11.576;2023-05-10T16:49:05;17.40;40.40
26035;DHT22;13809;48.632;11.576;2023-05-10T16:54:09;17.30;40.10
26035;DHT22;13809;48.632;11.576;2023-05-10T16:59:14;17.20;39.90
26035;DHT22;13809;48.632;11.576;2023-05-10T17:04:18;17.10;40.20
26035;DHT22;13809;48.632;11.576;2023-05-10T17:09:21;17.00;39.90
26035;DHT22;13809;48.632;11.576;2023-05-10T17:14:26;16.80;39.70
26035;DHT22;13809;48.632;11.576;2023-05-10T17:19:29;16.70;40.50
26035;DHT22;13809;48.632;11.576;2023-05-10T17:24:32;16.60;40.20
26035;DHT22;13809;48.632;11.576;2023-05-10T17:29:36;16.50;40.40
26035;DHT22;13809;48.632;11.576;2023-05-10T17:34:40;16.50;41.00
26035;DHT22;13809;48.632;11.576;2023-05-10T17:39:43;16.50;40.50
26035;DHT22;13809;48.632;11.576;2023-05-10T17:44:47;16.50;40.50
26035;DHT22;13809;48.632;11.576;2023-05-10T17:49:50;16.40;40.80
26035;DHT22;13809;48.632;11.576;2023-05-10T17:54:54;16.40;40.40
26035;DHT22;13809;48.632;11.576;2023-05-10T17:59:58;16.40;40.30
26035;DHT22;13809;48.632;11.576;2023-05-10T18:05:03;16.30;40.90
26035;DHT22;13809;48.632;11.576;2023-05-10T18:10:07;16.30;40.60
26035;DHT22;13809;48.632;11.576;2023-05-10T18:15:12;16.20;40.90
26035;DHT22;13809;48.632;11.576;2023-05-10T18:20:15;16.20;41.10
26035;DHT22;13809;48.632;11.576;2023-05-10T18:25:18;16.10;40.70
26035;DHT22;13809;48.632;11.576;2023-05-10T18:30:23;16.10;40.90
26035;DHT22;13809;48.632;11.576;2023-05-10T18:35:26;16.00;41.40
26035;DHT22;13809;48.632;11.576;2023-05-10T18:40:31;16.00;41.00
26035;DHT22;13809;48.632;11.576;2023-05-10T18:45:35;15.90;41.40
26035;DHT22;13809;48.632;11.576;2023-05-10T18:50:39;15.90;41.50
26035;DHT22;13809;48.632;11.576;2023-05-10T18:55:43;15.90;41.30
26035;DHT22;13809;48.632;11.576;2023-05-10T19:00:48;15.90;41.40
26035;DHT22;13809;48.632;11.576;2023-05-10T19:05:52;15.90;41.80
26035;DHT22;13809;48.632;11.576;2023-05-10T19:10:55;15.80;41.20
26035;DHT22;13809;48.632;11.576;2023-05-10T19:16:04;15.80;41.30
26035;DHT22;13809;48.632;11.576;2023-05-10T19:21:07;15.80;42.40
26035;DHT22;13809;48.632;11.576;2023-05-10T19:26:11;15.80;41.40
26035;DHT22;13809;48.632;11.576;2023-05-10T19:31:16;15.80;41.50
26035;DHT22;13809;48.632;11.576;2023-05-10T19:36:19;15.80;42.10
26035;DHT22;13809;48.632;11.576;2023-05-10T19:41:22;15.80;41.80
26035;DHT22;13809;48.632;11.576;2023-05-10T19:46:27;15.90;41.80
26035;DHT22;13809;48.632;11.576;2023-05-10T19:51:32;15.90;42.20
26035;DHT22;13809;48.632;11.576;2023-05-10T19:56:35;15.90;41.70
26035;DHT22;13809;48.632;11.576;2023-05-10T20:01:39;15.90;41.90
26035;DHT22;13809;48.632;11.576;2023-05-10T20:06:43;15.90;42.10
26035;DHT22;13809;48.632;11.576;2023-05-10T20:11:47;15.90;41.80
26035;DHT22;13809;48.632;11.576;2023-05-10T20:16:52;15.80;42.00
26035;DHT22;13809;48.632;11.576;2023-05-10T20:21:56;15.80;42.00
26035;DHT22;13809;48.632;11.576;2023-05-10T20:26:59;15.80;41.80
26035;DHT22;13809;48.632;11.576;2023-05-10T20:32:04;15.70;41.80
26035;DHT22;13809;48.632;11.576;2023-05-10T20:37:08;15.80;42.40
26035;DHT22;13809;48.632;11.576;2023-05-10T20:42:11;15.80;41.90
26035;DHT22;13809;48.632;11.576;2023-05-10T20:47:16;15.80;41.90
26035;DHT22;13809;48.632;11.576;2023-05-10T20:52:19;15.80;42.30
26035;DHT22;13809;48.632;11.576;2023-05-10T20:57:25;15.80;41.90
26035;DHT22;13809;48.632;11.576;2023-05-10T21:02:30;15.80;42.00
26035;DHT22;13809;48.632;11.576;2023-05-10T21:07:33;15.80;42.10
26035;DHT22;13809;48.632;11.576;2023-05-10T21:12:37;15.80;41.70
26035;DHT22;13809;48.632;11.576;2023-05-10T21:17:41;15.70;41.70
26035;DHT22;13809;48.632;11.576;2023-05-10T21:22:44;15.70;42.20
26035;DHT22;13809;48.632;11.576;2023-05-10T21:27:48;15.60;41.90
26035;DHT22;13809;48.632;11.576;2023-05-10T21:32:52;15.60;41.90
26035;DHT22;13809;48.632;11.576;2023-05-10T21:38:00;15.60;42.40
26035;DHT22;13809;48.632;11.576;2023-05-10T21:43:03;15.60;42.00
26035;DHT22;13809;48.632;11.576;2023-05-10T21:48:08;15.60;42.10
26035;DHT22;13809;48.632;11.576;2023-05-10T21:53:11;15.60;42.60
26035;DHT22;13809;48.632;11.576;2023-05-10T21:58:14;15.60;42.10
26035;DHT22;13809;48.632;11.576;2023-05-10T22:03:18;15.60;42.10
26035;DHT22;13809;48.632;11.576;2023-05-10T22:08:22;15.50;42.30
26035;DHT22;13809;48.632;11.576;2023-05-10T22:13:25;15.40;41.90
26035;DHT22;13809;48.632;11.576;2023-05-10T22:18:30;15.40;42.10
26035;DHT22;13809;48.632;11.576;2023-05-10T22:23:33;15.30;42.50
26035;DHT22;13809;48.632;11.576;2023-05-10T22:28:37;15.30;42.30
26035;DHT22;13809;48.632;11.576;2023-05-10T22:33:41;15.20;42.50
26035;DHT22;13809;48.632;11.576;2023-05-10T22:38:44;15.20;43.00
26035;DHT22;13809;48.632;11.576;2023-05-10T22:43:48;15.20;42.80
26035;DHT22;13809;48.632;11.576;2023-05-10T22:48:52;15.10;42.90
26035;DHT22;13809;48.632;11.576;2023-05-10T22:53:56;15.10;44.00
26035;DHT22;13809;48.632;11.576;2023-05-10T22:58:59;15.20;43.10
26035;DHT22;13809;48.632;11.576;2023-05-10T23:04:03;15.20;43.00
26035;DHT22;13809;48.632;11.576;2023-05-10T23:09:07;15.20;43.40
26035;DHT22;13809;48.632;11.576;2023-05-10T23:14:10;15.20;42.90
26035;DHT22;13809;48.632;11.576;2023-05-10T23:19:15;15.20;42.90
26035;DHT22;13809;48.632;11.576;2023-05-10T23:24:18;15.10;43.40
26035;DHT22;13809;48.632;11.576;2023-05-10T23:29:21;15.10;43.10
26035;DHT22;13809;48.632;11.576;2023-05-10T23:34:28;15.10;43.10
26035;DHT22;13809;48.632;11.576;2023-05-10T23:39:31;15.10;43.70
26035;DHT22;13809;48.632;11.576;2023-05-10T23:44:34;15.10;43.20
26035;DHT22;13809;48.632;11.576;2023-05-10T23:49:39;15.00;43.10
26035;DHT22;13809;48.632;11.576;2023-05-10T23:54:42;15.00;43.70
26035;DHT22;13809;48.632;11.576;2023-05-10T23:59:46;15.00;43.20
